createdAt,value
2018-09-30T00:01:07.824Z,101770.56
2018-09-30T00:03:36.635Z,101765.34
2018-09-30T00:06:05.477Z,101760.61
2018-09-30T00:08:34.288Z,101766.03
2018-09-30T00:11:03.167Z,101760.79
2018-09-30T00:13:32.005Z,101752.48
2018-09-30T00:16:00.809Z,101753.27
2018-09-30T00:18:29.628Z,101738.23
2018-09-30T00:20:58.486Z,101741.17
2018-09-30T00:23:27.313Z,101735.70
2018-09-30T00:26:13.667Z,101734.36
2018-09-30T00:28:42.789Z,101736.23
2018-09-30T00:31:11.849Z,101724.44
2018-09-30T00:33:58.796Z,101730.74
2018-09-30T00:36:27.759Z,101732.89
2018-09-30T00:38:56.476Z,101723.09
2018-09-30T00:41:25.299Z,101717.81
2018-09-30T00:43:54.114Z,101712.75
2018-09-30T00:46:22.935Z,101717.97
2018-09-30T00:48:51.773Z,101709.95
2018-09-30T00:51:20.575Z,101705.44
2018-09-30T00:53:49.385Z,101704.31
2018-09-30T00:56:18.225Z,101702.41
2018-09-30T00:58:47.027Z,101690.00
2018-09-30T01:01:15.869Z,101686.92
2018-09-30T01:03:44.688Z,101681.54
2018-09-30T01:06:13.507Z,101680.83
2018-09-30T01:08:42.309Z,101675.23
2018-09-30T01:11:11.135Z,101670.74
2018-09-30T01:13:39.942Z,101674.59
2018-09-30T01:16:09.104Z,101666.69
2018-09-30T01:18:37.926Z,101660.64
2018-09-30T01:21:07.113Z,101666.22
2018-09-30T01:23:36.181Z,101661.54
2018-09-30T01:26:05.094Z,101656.92
2018-09-30T01:28:34.157Z,101655.38
2018-09-30T01:31:02.996Z,101658.29
2018-09-30T01:33:31.898Z,101657.89
2018-09-30T01:36:00.733Z,101651.61
2018-09-30T01:38:29.554Z,101647.66
2018-09-30T01:40:58.380Z,101646.20
2018-09-30T01:43:27.197Z,101639.84
2018-09-30T01:45:56.024Z,101630.55
2018-09-30T01:48:24.842Z,101624.59
2018-09-30T01:50:53.640Z,101616.88
2018-09-30T01:53:22.489Z,101613.70
2018-09-30T01:55:51.328Z,101611.06
2018-09-30T01:58:20.182Z,101610.98
2018-09-30T02:00:48.996Z,101603.67
2018-09-30T02:03:17.855Z,101595.47
2018-09-30T02:05:46.679Z,101603.56
2018-09-30T02:08:15.503Z,101592.45
2018-09-30T02:10:44.344Z,101587.33
2018-09-30T02:13:13.170Z,101591.09
2018-09-30T02:15:41.997Z,101579.09
2018-09-30T02:18:10.803Z,101573.32
2018-09-30T02:20:39.641Z,101561.23
2018-09-30T02:23:08.482Z,101565.63
2018-09-30T02:25:37.300Z,101570.30
2018-09-30T02:28:06.116Z,101571.02
2018-09-30T02:30:34.959Z,101569.41
2018-09-30T02:33:03.781Z,101568.75
2018-09-30T02:35:32.643Z,101564.97
2018-09-30T02:38:01.470Z,101565.84
2018-09-30T02:40:30.315Z,101568.52
2018-09-30T02:42:59.106Z,101572.47
2018-09-30T02:45:27.949Z,101574.80
2018-09-30T02:47:56.777Z,101566.88
2018-09-30T02:50:25.635Z,101565.51
2018-09-30T02:52:54.455Z,101561.80
2018-09-30T02:55:23.305Z,101558.41
2018-09-30T02:57:52.122Z,101552.89
2018-09-30T03:00:20.981Z,101538.89
2018-09-30T03:02:49.899Z,101538.25
2018-09-30T03:05:18.719Z,101535.37
2018-09-30T03:08:04.965Z,101537.63
2018-09-30T03:10:33.808Z,101543.69
2018-09-30T03:13:02.676Z,101544.44
2018-09-30T03:15:31.474Z,101534.30
2018-09-30T03:18:00.298Z,101536.34
2018-09-30T03:20:29.126Z,101529.57
2018-09-30T03:22:57.956Z,101525.02
2018-09-30T03:25:26.799Z,101524.74
2018-09-30T03:27:55.624Z,101520.36
2018-09-30T03:30:24.462Z,101514.13
2018-09-30T03:32:53.310Z,101518.62
2018-09-30T03:35:22.157Z,101518.86
2018-09-30T03:37:50.989Z,101515.34
2018-09-30T03:40:19.862Z,101512.19
2018-09-30T03:42:48.696Z,101509.56
2018-09-30T03:45:17.597Z,101523.12
2018-09-30T03:47:46.431Z,101514.83
2018-09-30T03:50:15.257Z,101517.16
2018-09-30T03:52:44.082Z,101524.89
2018-09-30T03:55:12.918Z,101520.32
2018-09-30T03:57:41.740Z,101516.30
2018-09-30T04:00:10.580Z,101520.71
2018-09-30T04:02:39.428Z,101517.23
2018-09-30T04:05:08.252Z,101515.11
2018-09-30T04:07:37.082Z,101512.06
2018-09-30T04:10:05.952Z,101517.64
2018-09-30T04:12:34.748Z,101517.91
2018-09-30T04:15:03.629Z,101518.09
2018-09-30T04:17:32.676Z,101515.64
2018-09-30T04:20:01.398Z,101512.48
2018-09-30T04:22:30.211Z,101508.39
2018-09-30T04:24:59.022Z,101506.58
2018-09-30T04:27:27.836Z,101515.72
2018-09-30T04:29:56.693Z,101519.06
2018-09-30T04:32:25.556Z,101516.70
2018-09-30T04:34:54.409Z,101510.70
2018-09-30T04:37:23.243Z,101509.03
2018-09-30T04:39:52.086Z,101506.55
2018-09-30T04:42:20.904Z,101507.57
2018-09-30T04:44:49.721Z,101500.63
2018-09-30T04:47:18.556Z,101500.23
2018-09-30T04:49:47.389Z,101496.00
2018-09-30T04:52:16.271Z,101489.92
2018-09-30T04:54:45.140Z,101492.84
2018-09-30T04:57:13.970Z,101496.47
2018-09-30T04:59:42.807Z,101493.15
2018-09-30T05:02:11.633Z,101487.09
2018-09-30T05:04:40.485Z,101493.81
2018-09-30T05:07:09.309Z,101489.92
2018-09-30T05:09:38.128Z,101488.50
2018-09-30T05:12:06.949Z,101485.05
2018-09-30T05:14:35.770Z,101489.14
2018-09-30T05:17:04.597Z,101485.67
2018-09-30T05:19:33.430Z,101494.11
2018-09-30T05:22:02.250Z,101485.22
2018-09-30T05:24:31.083Z,101484.84
2018-09-30T05:26:59.902Z,101477.59
2018-09-30T05:29:28.782Z,101482.23
2018-09-30T05:31:57.608Z,101494.15
2018-09-30T05:34:26.445Z,101489.73
2018-09-30T05:36:55.310Z,101481.00
2018-09-30T05:39:24.123Z,101480.81
2018-09-30T05:41:52.968Z,101483.97
2018-09-30T05:44:21.759Z,101489.11
2018-09-30T05:46:50.617Z,101482.34
2018-09-30T05:49:19.490Z,101477.03
2018-09-30T05:51:48.290Z,101478.89
2018-09-30T05:54:17.211Z,101473.44
2018-09-30T05:56:46.036Z,101468.55
2018-09-30T05:59:14.879Z,101473.70
2018-09-30T06:01:43.721Z,101475.92
2018-09-30T06:04:12.530Z,101476.55
2018-09-30T06:06:41.362Z,101473.80
2018-09-30T06:09:13.163Z,101471.50
2018-09-30T06:11:42.546Z,101477.27
2018-09-30T06:14:11.750Z,101475.05
2018-09-30T06:16:40.344Z,101471.61
2018-09-30T06:19:09.263Z,101476.80
2018-09-30T06:21:38.632Z,101481.37
2018-09-30T06:24:07.882Z,101477.01
2018-09-30T06:26:36.719Z,101484.03
2018-09-30T06:29:05.593Z,101475.33
2018-09-30T06:31:34.419Z,101468.63
2018-09-30T06:34:03.253Z,101468.70
2018-09-30T06:36:32.053Z,101477.75
2018-09-30T06:39:00.894Z,101470.17
2018-09-30T06:41:29.705Z,101476.38
2018-09-30T06:43:58.533Z,101478.83
2018-09-30T06:46:27.403Z,101477.61
2018-09-30T06:48:56.293Z,101480.06
2018-09-30T06:51:25.121Z,101478.68
2018-09-30T06:53:53.972Z,101479.55
2018-09-30T06:56:22.797Z,101470.73
2018-09-30T06:58:51.624Z,101480.30
2018-09-30T07:01:20.424Z,101472.52
2018-09-30T07:03:49.238Z,101464.61
2018-09-30T07:06:18.108Z,101467.55
2018-09-30T07:08:46.922Z,101463.37
2018-09-30T07:11:15.789Z,101459.58
2018-09-30T07:13:44.679Z,101459.05
2018-09-30T07:16:13.540Z,101466.17
2018-09-30T07:18:42.366Z,101471.56
2018-09-30T07:21:11.259Z,101473.20
2018-09-30T07:23:40.135Z,101464.55
2018-09-30T07:26:08.972Z,101467.52
2018-09-30T07:28:37.818Z,101464.23
2018-09-30T07:31:06.646Z,101464.31
2018-09-30T07:33:35.530Z,101465.72
2018-09-30T07:36:04.424Z,101466.95
2018-09-30T07:38:33.259Z,101465.95
2018-09-30T07:41:02.085Z,101456.83
2018-09-30T07:43:30.973Z,101454.55
2018-09-30T07:45:59.812Z,101449.86
2018-09-30T07:48:28.632Z,101451.84
2018-09-30T07:50:57.550Z,101455.85
2018-09-30T07:53:26.379Z,101460.00
2018-09-30T07:55:55.229Z,101454.95
2018-09-30T07:58:24.026Z,101453.45
2018-09-30T08:00:52.883Z,101445.80
2018-09-30T08:03:21.710Z,101447.86
2018-09-30T08:05:50.548Z,101442.75
2018-09-30T08:08:19.472Z,101443.09
2018-09-30T08:10:48.305Z,101442.54
2018-09-30T08:13:17.168Z,101438.67
2018-09-30T08:15:46.499Z,101436.43
2018-09-30T08:18:15.318Z,101435.70
2018-09-30T08:20:44.162Z,101433.69
2018-09-30T08:23:13.022Z,101438.38
2018-09-30T08:25:41.888Z,101438.86
2018-09-30T08:28:10.745Z,101443.67
2018-09-30T08:30:39.618Z,101437.95
2018-09-30T08:33:08.439Z,101443.50
2018-09-30T08:35:37.283Z,101441.00
2018-09-30T08:38:24.024Z,101426.91
2018-09-30T08:41:01.637Z,101429.16
2018-09-30T08:43:31.456Z,101425.26
2018-09-30T08:46:00.730Z,101414.27
2018-09-30T08:48:29.581Z,101410.69
2018-09-30T08:50:58.529Z,101407.18
2018-09-30T08:53:27.711Z,101403.17
2018-09-30T08:55:57.245Z,101410.83
2018-09-30T08:58:26.948Z,101398.52
2018-09-30T09:00:55.852Z,101388.45
2018-09-30T09:03:25.310Z,101397.74
2018-09-30T09:05:54.175Z,101398.56
2018-09-30T09:08:23.034Z,101393.00
2018-09-30T09:10:51.908Z,101395.95
2018-09-30T09:13:20.758Z,101393.45
2018-09-30T09:15:49.601Z,101386.11
2018-09-30T09:18:18.452Z,101375.55
2018-09-30T09:20:47.307Z,101368.47
2018-09-30T09:23:16.301Z,101371.88
2018-09-30T09:25:45.156Z,101371.39
2018-09-30T09:28:14.114Z,101368.65
2018-09-30T09:30:42.867Z,101367.09
2018-09-30T09:33:11.825Z,101357.35
2018-09-30T09:35:40.555Z,101355.98
2018-09-30T09:38:09.396Z,101363.30
2018-09-30T09:40:38.246Z,101355.61
2018-09-30T09:43:07.122Z,101366.95
2018-09-30T09:45:35.994Z,101354.44
2018-09-30T09:48:04.876Z,101348.48
2018-09-30T09:50:33.775Z,101338.34
2018-09-30T09:53:02.620Z,101343.70
2018-09-30T09:55:31.480Z,101331.48
2018-09-30T09:58:00.318Z,101326.02
2018-09-30T10:00:45.390Z,101323.52
2018-09-30T10:03:15.696Z,101319.45
2018-09-30T10:05:44.782Z,101316.61
2018-09-30T10:08:14.000Z,101314.78
2018-09-30T10:10:42.796Z,101313.39
2018-09-30T10:13:11.704Z,101316.66
2018-09-30T10:15:40.490Z,101310.55
2018-09-30T10:18:09.309Z,101312.56
2018-09-30T10:20:38.176Z,101310.80
2018-09-30T10:23:07.044Z,101304.98
2018-09-30T10:25:35.887Z,101299.45
2018-09-30T10:28:04.750Z,101298.48
2018-09-30T10:30:33.643Z,101294.87
2018-09-30T10:33:02.463Z,101287.20
2018-09-30T10:35:31.306Z,101286.77
2018-09-30T10:38:00.132Z,101280.80
2018-09-30T10:40:29.063Z,101281.81
2018-09-30T10:42:57.896Z,101281.81
2018-09-30T10:45:26.726Z,101282.13
2018-09-30T10:47:55.581Z,101279.78
2018-09-30T10:50:24.423Z,101283.16
2018-09-30T10:52:53.264Z,101279.23
2018-09-30T10:55:22.259Z,101284.36
2018-09-30T10:57:51.097Z,101276.35
2018-09-30T11:00:19.947Z,101274.13
2018-09-30T11:02:48.790Z,101274.20
2018-09-30T11:05:17.666Z,101264.51
2018-09-30T11:07:46.518Z,101261.45
2018-09-30T11:10:15.445Z,101250.64
2018-09-30T11:12:44.187Z,101253.61
2018-09-30T11:15:13.001Z,101243.92
2018-09-30T11:17:41.828Z,101237.09
2018-09-30T11:20:10.679Z,101235.05
2018-09-30T11:22:39.644Z,101243.52
2018-09-30T11:25:08.398Z,101240.85
2018-09-30T11:27:37.248Z,101242.98
2018-09-30T11:30:06.141Z,101239.14
2018-09-30T11:32:35.008Z,101242.12
2018-09-30T11:35:03.832Z,101236.16
2018-09-30T11:37:32.673Z,101232.50
2018-09-30T11:40:01.504Z,101228.80
2018-09-30T11:42:30.378Z,101229.87
2018-09-30T11:44:59.223Z,101227.62
2018-09-30T11:47:28.124Z,101221.65
2018-09-30T11:49:56.959Z,101215.48
2018-09-30T11:52:25.832Z,101214.51
2018-09-30T11:54:54.642Z,101215.16
2018-09-30T11:57:23.514Z,101214.30
2018-09-30T11:59:52.331Z,101206.77
2018-09-30T12:02:21.173Z,101198.66
2018-09-30T12:04:49.998Z,101202.24
2018-09-30T12:07:18.821Z,101193.05
2018-09-30T12:09:47.662Z,101191.35
2018-09-30T12:12:16.494Z,101190.79
2018-09-30T12:14:45.371Z,101184.92
2018-09-30T12:17:14.200Z,101176.34
2018-09-30T12:19:43.036Z,101178.84
2018-09-30T12:22:11.895Z,101169.58
2018-09-30T12:24:40.726Z,101173.59
2018-09-30T12:27:09.580Z,101171.50
2018-09-30T12:29:38.398Z,101169.09
2018-09-30T12:32:07.574Z,101174.34
2018-09-30T12:34:36.487Z,101168.98
2018-09-30T12:37:05.336Z,101166.98
2018-09-30T12:39:34.184Z,101158.86
2018-09-30T12:42:03.015Z,101156.31
2018-09-30T12:44:31.838Z,101149.95
2018-09-30T12:47:00.700Z,101149.04
2018-09-30T12:49:29.537Z,101154.02
2018-09-30T12:51:58.651Z,101145.98
2018-09-30T12:54:27.484Z,101147.05
2018-09-30T12:56:56.361Z,101142.45
2018-09-30T12:59:25.197Z,101137.80
2018-09-30T13:01:54.031Z,101129.14
2018-09-30T13:04:22.854Z,101135.53
2018-09-30T13:06:51.709Z,101131.28
2018-09-30T13:09:20.548Z,101130.15
2018-09-30T13:11:49.387Z,101124.56
2018-09-30T13:14:18.310Z,101120.95
2018-09-30T13:16:47.119Z,101125.08
2018-09-30T13:19:16.000Z,101116.53
2018-09-30T13:21:44.830Z,101124.31
2018-09-30T13:24:13.676Z,101127.02
2018-09-30T13:26:42.491Z,101117.20
2018-09-30T13:29:11.347Z,101113.16
2018-09-30T13:31:40.156Z,101113.09
2018-09-30T13:34:09.014Z,101109.72
2018-09-30T13:36:37.876Z,101103.64
2018-09-30T13:39:09.003Z,101101.94
2018-09-30T13:41:38.187Z,101101.27
2018-09-30T13:44:07.064Z,101097.93
2018-09-30T13:46:35.935Z,101092.50
2018-09-30T13:49:04.835Z,101101.27
2018-09-30T13:51:33.705Z,101095.70
2018-09-30T13:54:02.609Z,101091.66
2018-09-30T13:56:31.475Z,101086.62
2018-09-30T13:59:00.296Z,101092.00
2018-09-30T14:01:29.140Z,101089.84
2018-09-30T14:03:57.969Z,101090.55
2018-09-30T14:06:26.801Z,101086.53
2018-09-30T14:08:55.650Z,101082.19
2018-09-30T14:11:24.535Z,101087.05
2018-09-30T14:13:53.355Z,101078.20
2018-09-30T14:16:22.202Z,101087.65
2018-09-30T14:18:51.016Z,101076.98
2018-09-30T14:21:19.829Z,101075.83
2018-09-30T14:23:48.688Z,101082.13
2018-09-30T14:26:17.518Z,101081.03
2018-09-30T14:28:46.370Z,101077.23
2018-09-30T14:31:15.199Z,101076.80
2018-09-30T14:33:44.051Z,101068.64
2018-09-30T14:36:12.905Z,101071.97
2018-09-30T14:38:41.842Z,101068.80
2018-09-30T14:41:10.710Z,101064.39
2018-09-30T14:43:39.859Z,101065.09
2018-09-30T14:46:08.741Z,101070.79
2018-09-30T14:48:37.617Z,101066.98
2018-09-30T14:51:06.420Z,101066.50
2018-09-30T14:53:35.258Z,101064.91
2018-09-30T14:56:04.082Z,101070.30
2018-09-30T14:58:35.851Z,101063.86
2018-09-30T15:01:04.695Z,101064.55
2018-09-30T15:03:33.563Z,101069.08
2018-09-30T15:06:02.464Z,101068.88
2018-09-30T15:08:31.214Z,101070.02
2018-09-30T15:11:00.093Z,101070.45
2018-09-30T15:13:28.932Z,101068.65
2018-09-30T15:15:57.757Z,101072.22
2018-09-30T15:18:26.603Z,101074.89
2018-09-30T15:20:55.430Z,101071.09
2018-09-30T15:23:24.275Z,101067.70
2018-09-30T15:25:53.118Z,101055.86
2018-09-30T15:28:21.982Z,101069.09
2018-09-30T15:30:50.804Z,101065.84
2018-09-30T15:33:19.628Z,101064.32
2018-09-30T15:35:48.723Z,101063.30
2018-09-30T15:38:17.544Z,101061.31
2018-09-30T15:40:46.386Z,101062.91
2018-09-30T15:43:15.219Z,101066.53
2018-09-30T15:45:44.041Z,101066.66
2018-09-30T15:48:12.889Z,101067.87
2018-09-30T15:50:41.743Z,101071.36
2018-09-30T15:53:10.612Z,101070.22
2018-09-30T15:55:39.445Z,101063.22
2018-09-30T15:58:08.323Z,101055.55
2018-09-30T16:00:37.160Z,101065.49
2018-09-30T16:03:06.050Z,101068.97
2018-09-30T16:05:34.865Z,101072.58
2018-09-30T16:08:03.695Z,101061.77
2018-09-30T16:10:32.858Z,101064.92
2018-09-30T16:13:01.818Z,101075.06
2018-09-30T16:15:30.605Z,101073.21
2018-09-30T16:17:59.445Z,101077.28
2018-09-30T16:20:28.297Z,101075.81
2018-09-30T16:22:57.147Z,101080.27
2018-09-30T16:25:25.995Z,101075.50
2018-09-30T16:27:54.837Z,101069.67
2018-09-30T16:30:23.702Z,101073.27
2018-09-30T16:32:52.527Z,101067.65
2018-09-30T16:35:21.586Z,101069.03
2018-09-30T16:37:50.425Z,101069.91
2018-09-30T16:40:19.308Z,101071.13
2018-09-30T16:42:48.168Z,101076.25
2018-09-30T16:45:16.992Z,101074.04
2018-09-30T16:47:45.836Z,101075.72
2018-09-30T16:50:14.655Z,101080.34
2018-09-30T16:52:43.486Z,101088.54
2018-09-30T16:55:12.449Z,101092.97
2018-09-30T16:57:41.309Z,101091.13
2018-09-30T17:00:10.600Z,101090.80
2018-09-30T17:02:39.451Z,101089.38
2018-09-30T17:05:08.261Z,101093.11
2018-09-30T17:07:37.113Z,101096.50
2018-09-30T17:10:05.958Z,101099.54
2018-09-30T17:12:34.784Z,101099.84
2018-09-30T17:15:03.626Z,101107.32
2018-09-30T17:17:32.433Z,101104.72
2018-09-30T17:20:01.272Z,101095.61
2018-09-30T17:22:30.088Z,101100.38
2018-09-30T17:24:58.945Z,101109.01
2018-09-30T17:27:27.857Z,101114.27
2018-09-30T17:29:56.709Z,101113.33
2018-09-30T17:32:25.522Z,101115.31
2018-09-30T17:34:54.335Z,101116.27
2018-09-30T17:37:23.753Z,101117.28
2018-09-30T17:39:52.583Z,101123.89
2018-09-30T17:42:21.404Z,101130.72
2018-09-30T17:44:50.285Z,101128.41
2018-09-30T17:47:19.119Z,101121.63
2018-09-30T17:49:47.970Z,101122.39
2018-09-30T17:52:16.795Z,101112.45
2018-09-30T17:54:45.666Z,101114.95
2018-09-30T17:57:14.501Z,101111.36
2018-09-30T17:59:43.321Z,101114.31
2018-09-30T18:02:12.145Z,101109.59
2018-09-30T18:04:40.968Z,101114.15
2018-09-30T18:07:09.817Z,101113.44
2018-09-30T18:09:38.655Z,101114.80
2018-09-30T18:12:07.582Z,101114.89
2018-09-30T18:14:36.370Z,101114.36
2018-09-30T18:17:05.564Z,101108.83
2018-09-30T18:19:34.386Z,101104.03
2018-09-30T18:22:03.241Z,101106.75
2018-09-30T18:24:32.076Z,101102.61
2018-09-30T18:27:01.168Z,101100.53
2018-09-30T18:29:30.666Z,101109.41
2018-09-30T18:31:59.544Z,101109.98
2018-09-30T18:34:28.393Z,101108.11
2018-09-30T18:36:57.193Z,101113.70
2018-09-30T18:39:26.064Z,101109.27
2018-09-30T18:41:54.895Z,101108.13
2018-09-30T18:44:23.783Z,101111.93
2018-09-30T18:46:52.623Z,101116.48
2018-09-30T18:49:21.480Z,101114.56
2018-09-30T18:51:50.314Z,101115.21
2018-09-30T18:54:19.164Z,101115.51
2018-09-30T18:56:48.062Z,101112.42
2018-09-30T18:59:19.334Z,101116.19
2018-09-30T19:01:48.257Z,101118.34
2018-09-30T19:04:17.096Z,101121.50
2018-09-30T19:06:46.003Z,101126.70
2018-09-30T19:09:14.823Z,101119.19
2018-09-30T19:11:43.735Z,101115.42
2018-09-30T19:14:12.814Z,101118.30
2018-09-30T19:16:42.630Z,101107.70
2018-09-30T19:19:11.519Z,101106.84
2018-09-30T19:21:40.313Z,101109.27
2018-09-30T19:24:09.251Z,101114.06
2018-09-30T19:26:38.096Z,101115.25
2018-09-30T19:29:06.942Z,101108.63
2018-09-30T19:31:38.755Z,101114.71
2018-09-30T19:34:07.642Z,101120.30
2018-09-30T19:36:36.583Z,101114.44
2018-09-30T19:39:08.157Z,101110.86
2018-09-30T19:41:37.021Z,101111.21
2018-09-30T19:44:05.891Z,101117.37
2018-09-30T19:46:34.793Z,101118.37
2018-09-30T19:49:03.655Z,101120.95
2018-09-30T19:51:32.516Z,101114.80
2018-09-30T19:54:01.548Z,101126.62
2018-09-30T19:56:30.280Z,101112.84
2018-09-30T19:58:59.111Z,101116.69
2018-09-30T20:01:27.992Z,101110.84
2018-09-30T20:03:56.841Z,101114.71
2018-09-30T20:06:25.650Z,101114.00
2018-09-30T20:08:54.538Z,101104.47
2018-09-30T20:11:23.368Z,101115.47
2018-09-30T20:13:52.201Z,101116.62
2018-09-30T20:16:21.035Z,101126.52
2018-09-30T20:18:49.864Z,101114.20
2018-09-30T20:21:18.696Z,101113.05
2018-09-30T20:23:47.561Z,101117.88
2018-09-30T20:26:16.379Z,101109.77
2018-09-30T20:28:45.550Z,101108.91
2018-09-30T20:31:14.059Z,101108.28
2018-09-30T20:33:42.903Z,101111.13
2018-09-30T20:36:11.754Z,101104.91
2018-09-30T20:38:40.575Z,101106.61
2018-09-30T20:41:09.407Z,101109.98
2018-09-30T20:43:38.210Z,101105.12
2018-09-30T20:46:07.135Z,101107.34
2018-09-30T20:48:35.976Z,101104.97
2018-09-30T20:51:04.816Z,101106.34
2018-09-30T20:53:33.672Z,101107.63
2018-09-30T20:56:02.555Z,101102.91
2018-09-30T20:58:31.318Z,101102.31
2018-09-30T21:01:00.152Z,101104.68
2018-09-30T21:03:28.964Z,101099.89
2018-09-30T21:06:24.688Z,101095.56
2018-09-30T21:08:53.527Z,101105.09
2018-09-30T21:11:22.377Z,101097.57
2018-09-30T21:13:51.201Z,101104.49
2018-09-30T21:16:20.043Z,101101.06
2018-09-30T21:18:49.004Z,101102.05
2018-09-30T21:21:17.724Z,101105.45
2018-09-30T21:23:46.541Z,101097.72
2018-09-30T21:26:15.340Z,101101.41
2018-09-30T21:28:44.179Z,101104.43
2018-09-30T21:31:13.005Z,101109.30
2018-09-30T21:33:41.836Z,101108.39
2018-09-30T21:36:10.681Z,101107.15
2018-09-30T21:38:39.536Z,101102.06
2018-09-30T21:41:08.369Z,101094.23
2018-09-30T21:43:37.202Z,101093.99
2018-09-30T21:46:06.052Z,101094.14
2018-09-30T21:48:34.900Z,101095.78
2018-09-30T21:51:03.735Z,101103.41
2018-09-30T21:53:32.565Z,101096.04
2018-09-30T21:56:01.388Z,101097.15
2018-09-30T21:58:30.223Z,101095.43
2018-09-30T22:01:05.404Z,101093.75
2018-09-30T22:03:34.246Z,101100.91
2018-09-30T22:06:03.064Z,101097.15
2018-09-30T22:08:31.869Z,101090.87
2018-09-30T22:11:00.717Z,101090.10
2018-09-30T22:13:29.536Z,101096.55
2018-09-30T22:15:58.388Z,101086.50
2018-09-30T22:18:27.215Z,101098.69
2018-09-30T22:20:56.057Z,101089.67
2018-09-30T22:23:24.874Z,101089.99
2018-09-30T22:25:53.722Z,101090.73
2018-09-30T22:28:22.542Z,101092.02
2018-09-30T22:30:51.389Z,101091.52
2018-09-30T22:33:20.216Z,101106.70
2018-09-30T22:35:49.052Z,101101.44
2018-09-30T22:38:17.896Z,101101.16
2018-09-30T22:40:46.719Z,101091.03
2018-09-30T22:43:15.549Z,101093.81
2018-09-30T22:45:44.419Z,101093.56
2018-09-30T22:48:13.174Z,101077.61
2018-09-30T22:50:42.021Z,101075.39
2018-09-30T22:53:10.942Z,101063.10
2018-09-30T22:55:39.699Z,101057.30
2018-09-30T22:58:08.516Z,101052.16
2018-09-30T23:00:37.353Z,101047.00
2018-09-30T23:03:06.280Z,101043.39
2018-09-30T23:05:35.088Z,101029.05
2018-09-30T23:08:03.917Z,101022.53
2018-09-30T23:10:32.752Z,101034.59
2018-09-30T23:13:01.586Z,101035.31
2018-09-30T23:15:30.433Z,101044.16
2018-09-30T23:17:59.324Z,101049.52
2018-09-30T23:20:28.132Z,101054.56
2018-09-30T23:22:56.923Z,101056.70
2018-09-30T23:25:25.763Z,101064.89
2018-09-30T23:27:54.583Z,101065.45
2018-09-30T23:30:23.432Z,101060.76
2018-09-30T23:32:52.237Z,101067.84
2018-09-30T23:35:21.065Z,101067.53
2018-09-30T23:37:49.890Z,101067.73
2018-09-30T23:40:18.808Z,101065.82
2018-09-30T23:42:47.625Z,101060.58
2018-09-30T23:45:16.472Z,101065.02
2018-09-30T23:47:45.299Z,101066.59
2018-09-30T23:50:14.185Z,101070.08
2018-09-30T23:52:43.030Z,101064.95
2018-09-30T23:55:11.865Z,101070.30
2018-09-30T23:57:40.803Z,101073.78
